Time;durP1;ratioP1;P1;durP2;ratioP2;P2;SDS_P1;SDS_P2;PMS_P1;PMS_P2;Temp;Humidity;BMP_temperature;BMP_pressure;BME280_temperature;BME280_humidity;BME280_pressure;Samples;Min_cycle;Max_cycle;Signal;HPM_P1;HPM_P2
2023/04/10 00:02:09;;;;;;;38.25;28.73;;;8.50;99.90;;;;;;5115977;28;20471;-69
2023/04/10 00:04:34;;;;;;;40.80;29.27;;;8.50;99.90;;;;;;5115039;28;20126;-69
2023/04/10 00:07:00;;;;;;;39.28;28.52;;;8.50;99.90;;;;;;5116241;28;20040;-69
2023/04/10 00:09:26;;;;;;;36.92;27.83;;;8.50;99.90;;;;;;5115963;28;20047;-69
2023/04/10 00:11:51;;;;;;;42.03;30.48;;;8.50;99.90;;;;;;5114770;28;20047;-69
2023/04/10 00:14:23;;;;;;;39.92;29.77;;;8.40;99.90;;;;;;5132155;27;20047;-69
2023/04/10 00:16:49;;;;;;;39.67;29.40;;;8.40;99.90;;;;;;5114012;28;20040;-69
2023/04/10 00:19:15;;;;;;;40.55;30.05;;;8.40;99.90;;;;;;5100678;28;20466;-69
2023/04/10 00:21:40;;;;;;;42.28;31.65;;;8.40;99.90;;;;;;5095203;28;20040;-69
2023/04/10 00:24:06;;;;;;;42.97;31.15;;;8.30;99.90;;;;;;5112448;28;20039;-69
2023/04/10 00:26:32;;;;;;;41.90;32.55;;;8.30;99.90;;;;;;5111818;27;20046;-70
2023/04/10 00:28:57;;;;;;;44.60;32.05;;;8.30;99.90;;;;;;5095325;28;20134;-69
2023/04/10 00:31:23;;;;;;;40.38;29.95;;;8.30;99.90;;;;;;5112207;28;20051;-70
2023/04/10 00:33:49;;;;;;;43.35;31.00;;;8.20;99.90;;;;;;5078119;28;20476;-69
2023/04/10 00:36:15;;;;;;;43.75;30.40;;;8.30;99.90;;;;;;5111537;28;20089;-69
2023/04/10 00:38:40;;;;;;;43.10;31.02;;;8.30;99.90;;;;;;5094978;28;20048;-69
2023/04/10 00:41:06;;;;;;;42.70;31.98;;;8.20;99.90;;;;;;5078091;28;20124;-70
2023/04/10 00:43:32;;;;;;;43.30;31.42;;;8.20;99.90;;;;;;5111222;28;20148;-70
2023/04/10 00:45:58;;;;;;;41.97;31.52;;;8.10;99.90;;;;;;5106419;28;20122;-69
2023/04/10 00:48:24;;;;;;;45.40;33.42;;;8.10;99.90;;;;;;5115409;28;20084;-69
2023/04/10 00:50:50;;;;;;;43.17;32.38;;;8.20;99.90;;;;;;5086088;28;20062;-69
2023/04/10 00:53:16;;;;;;;42.92;33.53;;;8.20;99.90;;;;;;5111436;28;20547;-69
2023/04/10 00:55:42;;;;;;;45.05;32.85;;;8.10;99.90;;;;;;5094497;28;20048;-69
2023/04/10 00:58:12;;;;;;;48.00;33.78;;;8.20;99.90;;;;;;5077731;28;20072;-69
2023/04/10 01:00:37;;;;;;;43.05;33.63;;;8.20;99.90;;;;;;5096886;28;20046;-69
2023/04/10 01:03:03;;;;;;;45.80;33.83;;;8.20;99.90;;;;;;5113748;28;20027;-69
2023/04/10 01:05:53;;;;;;;46.67;35.45;;;8.10;99.90;;;;;;5122460;27;20086;-69
2023/04/10 01:08:42;;;;;;;47.38;36.05;;;8.10;99.90;;;;;;5074033;28;20047;-69
2023/04/10 01:11:15;;;;;;;48.53;34.83;;;8.10;99.90;;;;;;5093158;28;20392;-69
2023/04/10 01:13:51;;;;;;;49.47;36.15;;;8.10;99.90;;;;;;5094301;28;20074;-70
2023/04/10 01:16:25;;;;;;;47.05;36.38;;;8.10;99.90;;;;;;5115090;27;20055;-69
2023/04/10 01:19:12;;;;;;;49.05;36.20;;;8.00;99.90;;;;;;5077284;28;20035;-69
2023/04/10 01:21:40;;;;;;;47.20;34.60;;;7.90;99.90;;;;;;5077265;28;20043;-70
2023/04/10 01:24:30;;;;;;;49.30;35.28;;;8.00;99.90;;;;;;5083149;28;20036;-70
2023/04/10 01:27:11;;;;;;;50.67;37.17;;;7.90;99.90;;;;;;5093658;28;20043;-70
2023/04/10 01:29:44;;;;;;;54.58;39.50;;;7.80;99.90;;;;;;5130587;27;20040;-69
2023/04/10 01:32:16;;;;;;;49.88;37.03;;;7.80;99.90;;;;;;5097298;28;20122;-69
2023/04/10 01:34:51;;;;;;;47.47;37.85;;;7.80;99.90;;;;;;5095579;28;20044;-69
2023/04/10 01:37:24;;;;;;;49.90;36.33;;;7.80;99.90;;;;;;5114531;28;20391;-69
2023/04/10 01:40:01;;;;;;;52.10;36.92;;;7.70;99.90;;;;;;5114212;28;20479;-69
2023/04/10 01:42:33;;;;;;;50.88;37.42;;;7.70;99.90;;;;;;5097117;28;20039;-69
2023/04/10 01:45:00;;;;;;;51.10;36.85;;;7.70;99.90;;;;;;5108610;28;20092;-69
2023/04/10 01:47:26;;;;;;;49.92;37.45;;;7.70;99.90;;;;;;5079904;28;20545;-69
2023/04/10 01:49:53;;;;;;;52.55;38.80;;;7.70;99.90;;;;;;5114036;28;20047;-69
2023/04/10 01:52:20;;;;;;;51.33;38.97;;;7.70;99.90;;;;;;5111558;28;20561;-69
2023/04/10 01:54:49;;;;;;;52.00;38.15;;;7.70;99.90;;;;;;5109745;28;20044;-69
2023/04/10 01:57:16;;;;;;;50.35;37.28;;;7.70;99.90;;;;;;5093480;28;20543;-69
2023/04/10 01:59:42;;;;;;;53.08;38.03;;;7.70;99.90;;;;;;5093620;28;20075;-69
2023/04/10 02:02:10;;;;;;;51.45;38.22;;;7.70;99.90;;;;;;5077823;28;20040;-69
2023/04/10 02:04:36;;;;;;;56.00;39.58;;;7.70;99.90;;;;;;5092846;28;20044;-69
2023/04/10 02:07:25;;;;;;;53.00;40.33;;;7.80;99.90;;;;;;5093235;28;20453;-69
2023/04/10 02:10:21;;;;;;;52.47;39.03;;;7.70;99.90;;;;;;5076375;28;20036;-69
2023/04/10 02:13:00;;;;;;;56.65;41.63;;;7.70;99.90;;;;;;5093320;28;20051;-69
2023/04/10 02:15:29;;;;;;;54.58;38.47;;;7.70;99.90;;;;;;5095646;28;20073;-69
2023/04/10 02:17:56;;;;;;;55.65;40.40;;;7.70;99.90;;;;;;5113388;28;20075;-69
2023/04/10 02:20:23;;;;;;;55.33;39.97;;;7.70;99.90;;;;;;5112367;28;20038;-69
2023/04/10 02:22:49;;;;;;;55.05;39.63;;;7.70;99.90;;;;;;5096434;28;20384;-69
2023/04/10 02:25:15;;;;;;;53.28;39.47;;;7.70;99.90;;;;;;5092824;28;20036;-69
2023/04/10 02:27:41;;;;;;;57.42;39.30;;;7.70;99.90;;;;;;5110089;28;20427;-69
2023/04/10 02:30:07;;;;;;;52.05;38.75;;;7.60;99.90;;;;;;5110726;27;20048;-69
2023/04/10 02:32:33;;;;;;;53.10;38.35;;;7.60;99.90;;;;;;5092987;28;20456;-69
2023/04/10 02:34:59;;;;;;;50.53;38.33;;;7.60;99.90;;;;;;5108925;28;20122;-69
2023/04/10 02:37:25;;;;;;;54.13;39.53;;;7.60;99.90;;;;;;5113032;28;20503;-69
2023/04/10 02:39:51;;;;;;;50.90;37.65;;;7.50;99.90;;;;;;5094285;28;20040;-69
2023/04/10 02:42:17;;;;;;;48.25;35.47;;;7.50;99.90;;;;;;5095066;28;20043;-69
2023/04/10 02:44:42;;;;;;;51.10;36.80;;;7.60;99.90;;;;;;5089690;28;20104;-69
2023/04/10 02:47:08;;;;;;;51.38;36.70;;;7.70;99.90;;;;;;5075197;28;20071;-69
2023/04/10 02:49:34;;;;;;;49.60;33.53;;;7.70;99.90;;;;;;5112045;27;20040;-69
2023/04/10 02:52:00;;;;;;;49.83;36.10;;;7.80;99.90;;;;;;5090972;28;20463;-69
2023/04/10 02:54:26;;;;;;;49.40;36.60;;;7.70;99.90;;;;;;5102956;28;20596;-69
2023/04/10 02:56:51;;;;;;;51.35;36.00;;;7.80;99.90;;;;;;5111852;28;20156;-70
2023/04/10 02:59:17;;;;;;;45.95;34.85;;;7.80;99.90;;;;;;5129973;27;20047;-69
2023/04/10 03:01:44;;;;;;;46.88;34.75;;;7.90;99.90;;;;;;5076806;28;20032;-69
2023/04/10 03:04:10;;;;;;;49.53;35.80;;;7.90;99.90;;;;;;5089705;28;20102;-69
2023/04/10 03:06:36;;;;;;;48.47;32.63;;;7.90;99.90;;;;;;5095612;28;20075;-69
2023/04/10 03:09:01;;;;;;;49.42;34.17;;;7.90;99.90;;;;;;5112553;28;20043;-69
2023/04/10 03:11:27;;;;;;;49.20;35.58;;;7.80;99.90;;;;;;5094861;28;20074;-69
2023/04/10 03:13:52;;;;;;;47.00;32.95;;;7.90;99.90;;;;;;5094701;28;20464;-69
2023/04/10 03:16:18;;;;;;;47.97;34.08;;;8.00;99.90;;;;;;5110240;28;20036;-69
2023/04/10 03:18:45;;;;;;;49.03;35.00;;;7.90;99.90;;;;;;5112751;28;20039;-69
2023/04/10 03:21:11;;;;;;;47.75;34.88;;;7.90;99.90;;;;;;5111207;28;20503;-69
2023/04/10 03:23:37;;;;;;;48.78;34.05;;;7.80;99.90;;;;;;5110140;28;20040;-69
2023/04/10 03:26:03;;;;;;;46.08;32.38;;;7.90;99.90;;;;;;5129776;27;20042;-69
2023/04/10 03:28:29;;;;;;;45.30;30.45;;;8.00;99.90;;;;;;5112597;28;20043;-69
2023/04/10 03:30:55;;;;;;;47.35;32.50;;;7.90;99.90;;;;;;5100464;28;20492;-70
2023/04/10 03:33:21;;;;;;;49.65;34.78;;;7.90;99.90;;;;;;5103840;28;20032;-69
2023/04/10 03:35:46;;;;;;;49.55;33.60;;;7.90;99.90;;;;;;5098563;28;20121;-70
2023/04/10 03:38:12;;;;;;;49.00;34.70;;;7.80;99.90;;;;;;5133793;27;20039;-69
2023/04/10 03:40:38;;;;;;;50.67;35.85;;;7.90;99.90;;;;;;5090421;28;20078;-69
2023/04/10 03:43:03;;;;;;;52.00;35.10;;;7.80;99.90;;;;;;5096082;28;20051;-69
2023/04/10 03:45:29;;;;;;;52.08;35.25;;;7.80;99.90;;;;;;5100453;28;20047;-69
2023/04/10 03:47:54;;;;;;;51.63;35.75;;;7.80;99.90;;;;;;5095974;28;20437;-69
2023/04/10 03:50:20;;;;;;;52.60;35.45;;;7.90;99.90;;;;;;5106519;28;20043;-69
2023/04/10 03:52:48;;;;;;;50.30;34.85;;;7.90;99.90;;;;;;5099156;28;20056;-69
2023/04/10 03:55:17;;;;;;;49.70;36.88;;;7.80;99.90;;;;;;5098176;28;20452;-69
2023/04/10 03:57:47;;;;;;;55.97;38.00;;;7.80;99.90;;;;;;5116449;28;20043;-69
2023/04/10 04:00:14;;;;;;;53.53;37.45;;;7.80;99.90;;;;;;5115479;28;20058;-69
2023/04/10 04:02:40;;;;;;;52.50;36.53;;;7.70;99.90;;;;;;5116159;28;20088;-69
2023/04/10 04:05:06;;;;;;;53.70;36.28;;;7.80;99.90;;;;;;5115097;28;20047;-69
2023/04/10 04:07:31;;;;;;;59.35;39.20;;;7.80;99.90;;;;;;5116336;28;20036;-69
2023/04/10 04:09:57;;;;;;;54.75;38.85;;;7.80;99.90;;;;;;5126755;27;20088;-69
2023/04/10 04:12:23;;;;;;;58.25;39.15;;;7.80;99.90;;;;;;5097979;28;20369;-69
2023/04/10 04:14:48;;;;;;;55.30;40.17;;;7.70;99.90;;;;;;5104215;28;20040;-69
2023/04/10 04:17:14;;;;;;;56.15;39.40;;;7.70;99.90;;;;;;5112399;28;20032;-69
2023/04/10 04:19:39;;;;;;;58.05;40.70;;;7.70;99.90;;;;;;5112701;28;20082;-69
2023/04/10 04:22:05;;;;;;;56.03;39.65;;;7.80;99.90;;;;;;5115722;28;20040;-69
2023/04/10 04:24:31;;;;;;;59.92;40.58;;;7.80;99.90;;;;;;5097752;28;20035;-69
2023/04/10 04:26:56;;;;;;;59.35;39.53;;;7.80;99.90;;;;;;5132793;27;20483;-69
2023/04/10 04:29:22;;;;;;;61.38;42.00;;;7.90;99.90;;;;;;5112203;27;20063;-69
2023/04/10 04:31:47;;;;;;;61.03;41.03;;;8.00;99.90;;;;;;5112201;28;20496;-69
2023/04/10 04:34:13;;;;;;;46.25;27.80;;;8.00;99.90;;;;;;5116335;27;20502;-69
2023/04/10 04:36:39;;;;;;;53.97;34.38;;;8.10;99.90;;;;;;5114148;28;20392;-69
2023/04/10 04:39:04;;;;;;;58.90;38.35;;;8.10;99.90;;;;;;5111850;28;20040;-69
2023/04/10 04:41:31;;;;;;;50.38;33.60;;;8.20;99.90;;;;;;5098324;28;20391;-69
2023/04/10 04:43:57;;;;;;;54.22;35.25;;;8.10;99.90;;;;;;5104276;28;20452;-69
2023/04/10 04:46:23;;;;;;;59.58;38.35;;;8.20;99.90;;;;;;5095057;28;20039;-69
2023/04/10 04:48:49;;;;;;;59.70;40.50;;;8.20;99.90;;;;;;5112818;28;20538;-69
2023/04/10 04:51:14;;;;;;;58.30;40.65;;;8.10;99.90;;;;;;5115189;28;20062;-69
2023/04/10 04:53:40;;;;;;;57.53;40.38;;;8.10;99.90;;;;;;5130882;27;20108;-69
2023/04/10 04:56:06;;;;;;;58.63;39.67;;;8.20;99.90;;;;;;5114956;28;20491;-69
2023/04/10 04:58:32;;;;;;;62.05;41.20;;;8.10;99.90;;;;;;5115062;28;20071;-69
2023/04/10 05:00:57;;;;;;;58.47;40.63;;;8.10;99.90;;;;;;5094734;28;20067;-69
2023/04/10 05:03:23;;;;;;;55.75;37.63;;;8.20;99.90;;;;;;5094409;28;20047;-69
2023/04/10 05:05:49;;;;;;;59.75;41.08;;;8.20;99.90;;;;;;5115037;28;20039;-69
2023/04/10 05:08:14;;;;;;;56.10;41.83;;;8.20;99.90;;;;;;5097810;28;20035;-69
2023/04/10 05:10:40;;;;;;;53.13;32.20;;;8.10;99.90;;;;;;5112783;28;20036;-69
2023/04/10 05:13:06;;;;;;;57.70;41.97;;;8.20;99.90;;;;;;5096415;28;20120;-69
2023/04/10 05:15:31;;;;;;;59.38;40.53;;;8.20;99.90;;;;;;5093761;28;20047;-69
2023/04/10 05:17:57;;;;;;;53.33;38.80;;;8.20;99.90;;;;;;5094216;28;20472;-69
2023/04/10 05:20:22;;;;;;;58.75;40.03;;;8.10;99.90;;;;;;5108751;28;20127;-69
2023/04/10 05:22:49;;;;;;;50.85;31.48;;;8.10;99.90;;;;;;5097604;28;20036;-69
2023/04/10 05:25:15;;;;;;;55.42;34.42;;;8.30;99.90;;;;;;5096722;28;20044;-69
2023/04/10 05:27:40;;;;;;;59.67;40.65;;;8.30;99.90;;;;;;5094012;28;20050;-69
2023/04/10 05:30:06;;;;;;;48.13;30.45;;;8.30;99.90;;;;;;5095721;28;20424;-69
2023/04/10 05:32:32;;;;;;;52.05;34.00;;;8.20;99.90;;;;;;5110650;28;20476;-69
2023/04/10 05:34:57;;;;;;;56.72;39.83;;;8.30;99.90;;;;;;5111757;27;20066;-69
2023/04/10 05:37:23;;;;;;;53.20;36.08;;;8.30;99.90;;;;;;5093834;28;20477;-69
2023/04/10 05:39:49;;;;;;;57.85;40.35;;;8.30;99.90;;;;;;5103600;28;20039;-69
2023/04/10 05:42:14;;;;;;;60.22;42.88;;;8.20;99.90;;;;;;5113454;28;20039;-69
2023/04/10 05:44:40;;;;;;;56.40;38.80;;;8.10;99.90;;;;;;5109303;28;20543;-69
2023/04/10 05:47:06;;;;;;;56.13;41.30;;;8.30;99.90;;;;;;5131462;27;20081;-69
2023/04/10 05:49:32;;;;;;;55.38;41.00;;;8.30;99.90;;;;;;5095558;28;20491;-69
2023/04/10 05:51:58;;;;;;;52.88;34.20;;;8.30;99.90;;;;;;5113947;28;20165;-69
2023/04/10 05:54:23;;;;;;;47.55;30.52;;;8.30;99.90;;;;;;5129709;27;20488;-69
2023/04/10 05:56:49;;;;;;;44.47;27.85;;;8.40;99.90;;;;;;5096427;28;20499;-69
2023/04/10 05:59:14;;;;;;;52.88;34.67;;;8.50;99.90;;;;;;5109323;28;20031;-69
2023/04/10 06:01:40;;;;;;;41.38;26.65;;;8.50;99.90;;;;;;5110344;28;20044;-69
2023/04/10 06:04:06;;;;;;;52.75;33.97;;;8.50;99.90;;;;;;5092846;28;20119;-69
2023/04/10 06:06:32;;;;;;;61.08;41.20;;;8.50;99.90;;;;;;5092935;28;20039;-69
2023/04/10 06:08:58;;;;;;;59.15;35.65;;;8.50;99.90;;;;;;5093195;28;20177;-69
2023/04/10 06:11:23;;;;;;;53.38;32.95;;;8.50;99.90;;;;;;5110179;28;20036;-69
2023/04/10 06:13:49;;;;;;;53.08;35.80;;;8.50;99.90;;;;;;5092809;28;20400;-69
2023/04/10 06:16:15;;;;;;;56.95;37.65;;;8.60;99.90;;;;;;5093183;28;20506;-69
2023/04/10 06:18:41;;;;;;;58.47;39.65;;;8.60;99.90;;;;;;5093236;28;20044;-69
2023/04/10 06:21:07;;;;;;;55.53;38.33;;;8.60;99.90;;;;;;5112442;28;20042;-69
2023/04/10 06:23:32;;;;;;;49.78;33.13;;;8.60;99.90;;;;;;5104225;28;20028;-69
2023/04/10 06:25:59;;;;;;;47.20;32.42;;;8.70;99.90;;;;;;5109827;28;20044;-69
2023/04/10 06:28:25;;;;;;;54.33;39.22;;;8.70;99.90;;;;;;5092913;28;20047;-69
2023/04/10 06:30:50;;;;;;;47.40;32.08;;;8.70;99.90;;;;;;5094152;28;20058;-69
2023/04/10 06:33:16;;;;;;;41.85;27.00;;;8.90;99.90;;;;;;5095204;28;20431;-69
2023/04/10 06:35:42;;;;;;;54.28;39.25;;;8.90;99.90;;;;;;5112901;28;20039;-69
2023/04/10 06:38:07;;;;;;;52.70;35.90;;;8.90;99.90;;;;;;5113129;28;20399;-69
2023/04/10 06:40:33;;;;;;;54.55;37.50;;;8.80;99.90;;;;;;5094817;28;20036;-69
2023/04/10 06:43:00;;;;;;;54.55;37.20;;;8.90;99.90;;;;;;5126200;27;20368;-69
2023/04/10 06:45:25;;;;;;;48.55;33.80;;;8.90;99.90;;;;;;5098528;28;20048;-69
2023/04/10 06:47:51;;;;;;;49.50;33.85;;;8.90;99.90;;;;;;5095914;28;20131;-69
2023/04/10 06:50:17;;;;;;;42.65;28.52;;;9.00;99.90;;;;;;5099995;28;20051;-69
2023/04/10 06:52:47;;;;;;;51.20;32.10;;;9.10;99.90;;;;;;5125139;27;20052;-69
2023/04/10 06:55:12;;;;;;;54.83;37.47;;;9.20;99.90;;;;;;5109330;28;20044;-69
2023/04/10 06:57:39;;;;;;;38.42;23.73;;;9.20;99.90;;;;;;5109393;28;20396;-69
2023/04/10 07:00:06;;;;;;;64.22;43.00;;;9.20;99.90;;;;;;5104085;28;20112;-69
2023/04/10 07:02:31;;;;;;;58.17;35.78;;;9.30;99.90;;;;;;5112657;28;20046;-69
2023/04/10 07:04:57;;;;;;;55.15;31.85;;;9.30;99.90;;;;;;5092279;28;20400;-69
2023/04/10 07:07:23;;;;;;;51.33;33.90;;;9.40;99.90;;;;;;5109181;28;20051;-69
2023/04/10 07:09:49;;;;;;;48.55;31.27;;;9.40;99.90;;;;;;5109746;27;20124;-69
2023/04/10 07:12:15;;;;;;;36.00;22.35;;;9.50;99.90;;;;;;5092240;28;20044;-69
2023/04/10 07:14:41;;;;;;;48.67;31.70;;;9.50;99.90;;;;;;5091683;28;20127;-69
2023/04/10 07:17:07;;;;;;;48.92;33.28;;;9.60;99.90;;;;;;5103089;28;20135;-69
2023/04/10 07:19:33;;;;;;;46.63;30.45;;;9.50;99.90;;;;;;5091731;28;20078;-69
2023/04/10 07:21:59;;;;;;;47.22;32.22;;;9.50;99.90;;;;;;5092131;28;20040;-69
2023/04/10 07:24:25;;;;;;;42.60;28.55;;;9.60;99.90;;;;;;5098164;28;20032;-69
2023/04/10 07:26:51;;;;;;;45.65;29.25;;;9.70;99.90;;;;;;5093232;28;20089;-69
2023/04/10 07:29:16;;;;;;;46.42;29.55;;;9.80;99.90;;;;;;5117870;27;20040;-69
2023/04/10 07:31:42;;;;;;;43.45;28.35;;;9.80;99.90;;;;;;5108954;28;20047;-69
2023/04/10 07:34:10;;;;;;;50.53;30.92;;;9.80;99.90;;;;;;5092330;28;20036;-69
2023/04/10 07:36:35;;;;;;;29.25;18.10;;;9.80;99.90;;;;;;5094275;28;20101;-69
2023/04/10 07:39:01;;;;;;;44.75;31.58;;;9.90;99.90;;;;;;5096088;28;20036;-69
2023/04/10 07:41:27;;;;;;;44.42;30.10;;;10.00;99.90;;;;;;5109653;28;20039;-69
2023/04/10 07:43:52;;;;;;;32.95;19.73;;;10.10;99.90;;;;;;5108115;28;20028;-69
2023/04/10 07:46:18;;;;;;;30.95;20.95;;;10.20;99.90;;;;;;5096442;28;20036;-69
2023/04/10 07:48:45;;;;;;;35.10;21.35;;;10.30;99.90;;;;;;5097165;28;20039;-69
2023/04/10 07:51:11;;;;;;;40.55;28.65;;;10.30;99.90;;;;;;5100706;28;20044;-70
2023/04/10 07:53:38;;;;;;;31.23;18.40;;;10.40;99.90;;;;;;5097467;28;20060;-69
2023/04/10 07:56:04;;;;;;;37.42;24.35;;;10.50;99.90;;;;;;5097990;28;20044;-69
2023/04/10 07:58:30;;;;;;;35.38;22.45;;;10.50;99.90;;;;;;5105089;28;20082;-69
2023/04/10 08:00:56;;;;;;;37.05;26.13;;;10.60;99.90;;;;;;5073951;28;20476;-69
2023/04/10 08:03:22;;;;;;;38.75;24.52;;;10.80;99.90;;;;;;5122083;28;20092;-69
2023/04/10 08:05:48;;;;;;;33.20;22.88;;;10.90;99.90;;;;;;5091298;28;20051;-69
2023/04/10 08:08:15;;;;;;;40.92;29.08;;;11.00;99.90;;;;;;5090880;28;20381;-69
2023/04/10 08:10:40;;;;;;;31.48;20.17;;;11.00;99.90;;;;;;5078365;28;20105;-69
2023/04/10 08:13:06;;;;;;;35.13;21.38;;;11.10;99.90;;;;;;5074712;28;20043;-69
2023/04/10 08:15:32;;;;;;;38.10;25.77;;;11.20;99.90;;;;;;5102513;28;20035;-69
2023/04/10 08:17:57;;;;;;;35.85;25.52;;;11.30;99.90;;;;;;5101184;28;20032;-69
2023/04/10 08:20:23;;;;;;;29.80;18.98;;;11.40;99.90;;;;;;5088738;28;20032;-69
2023/04/10 08:22:48;;;;;;;36.67;25.00;;;11.40;99.90;;;;;;5120022;27;20036;-69
2023/04/10 08:25:14;;;;;;;33.45;21.35;;;11.50;99.90;;;;;;5101263;28;20043;-69
2023/04/10 08:27:40;;;;;;;27.33;17.58;;;11.60;99.90;;;;;;5094166;28;20063;-69
2023/04/10 08:30:06;;;;;;;36.38;24.67;;;11.80;99.90;;;;;;5094285;28;20040;-69
2023/04/10 08:32:32;;;;;;;34.72;22.83;;;11.80;99.90;;;;;;5110406;28;20140;-69
2023/04/10 08:34:57;;;;;;;31.60;22.65;;;12.00;99.90;;;;;;5095311;28;20071;-69
2023/04/10 08:37:25;;;;;;;31.30;20.27;;;12.00;99.90;;;;;;5094535;28;20036;-69
2023/04/10 08:39:50;;;;;;;30.58;19.95;;;12.10;99.90;;;;;;5085772;28;20462;-69
2023/04/10 08:42:16;;;;;;;25.27;16.00;;;12.20;99.90;;;;;;5100276;28;20128;-69
2023/04/10 08:44:42;;;;;;;33.65;22.48;;;12.20;99.90;;;;;;5095262;28;20047;-69
2023/04/10 08:47:09;;;;;;;28.30;18.02;;;12.20;99.90;;;;;;5094165;28;20859;-69
2023/04/10 08:49:53;;;;;;;27.83;17.95;;;12.30;99.90;;;;;;5110539;27;20085;-69
2023/04/10 08:52:24;;;;;;;26.27;18.92;;;12.50;99.90;;;;;;5123015;27;20039;-69
2023/04/10 08:54:56;;;;;;;27.42;19.30;;;12.50;99.90;;;;;;5100873;28;20039;-69
2023/04/10 08:57:22;;;;;;;26.35;18.77;;;12.50;99.90;;;;;;5083978;28;20036;-68
2023/04/10 08:59:49;;;;;;;26.55;17.98;;;12.60;99.90;;;;;;5110182;28;20391;-69
2023/04/10 09:02:14;;;;;;;24.02;16.58;;;12.60;99.90;;;;;;5090327;28;20092;-69
2023/04/10 09:04:53;;;;;;;26.13;17.08;;;12.50;99.90;;;;;;5128496;27;20043;-69
2023/04/10 09:07:19;;;;;;;25.15;15.90;;;12.60;99.90;;;;;;5075791;28;20484;-69
2023/04/10 09:09:45;;;;;;;25.35;17.90;;;12.80;99.90;;;;;;5100401;28;20048;-69
2023/04/10 09:12:15;;;;;;;24.33;16.83;;;12.90;99.90;;;;;;5090139;28;20035;-69
2023/04/10 09:14:41;;;;;;;24.17;16.33;;;13.00;99.90;;;;;;5095342;28;20043;-69
2023/04/10 09:17:17;;;;;;;25.00;16.77;;;13.10;99.90;;;;;;5084229;28;20058;-69
2023/04/10 09:19:53;;;;;;;22.85;13.55;;;13.20;99.90;;;;;;5093384;28;20038;-69
2023/04/10 09:22:31;;;;;;;24.80;16.33;;;13.40;99.90;;;;;;5105367;28;20042;-69
2023/04/10 09:24:59;;;;;;;25.95;17.10;;;13.50;99.90;;;;;;5097775;28;20047;-69
2023/04/10 09:27:37;;;;;;;18.13;12.18;;;13.50;99.90;;;;;;5106933;28;20078;-69
2023/04/10 09:30:04;;;;;;;20.77;14.40;;;13.80;99.90;;;;;;5086333;28;20076;-69
2023/04/10 09:32:44;;;;;;;19.65;12.50;;;13.90;99.90;;;;;;5112169;28;20050;-69
2023/04/10 09:35:11;;;;;;;25.58;16.65;;;13.90;99.90;;;;;;5093775;28;20043;-69
2023/04/10 09:37:39;;;;;;;21.08;14.60;;;13.80;99.90;;;;;;5104454;28;20500;-69
2023/04/10 09:40:05;;;;;;;20.63;14.52;;;13.80;99.90;;;;;;5084850;28;20484;-69
2023/04/10 09:42:38;;;;;;;22.15;15.02;;;13.80;99.90;;;;;;5102943;28;20108;-69
2023/04/10 09:45:04;;;;;;;20.17;13.80;;;13.80;99.90;;;;;;5113140;28;20035;-69
2023/04/10 09:47:30;;;;;;;22.25;14.55;;;13.90;99.90;;;;;;5100257;28;20032;-69
2023/04/10 09:49:59;;;;;;;20.10;13.90;;;14.10;99.90;;;;;;5095893;28;20036;-69
2023/04/10 09:52:26;;;;;;;22.65;15.55;;;14.00;99.90;;;;;;5075156;28;20044;-69
2023/04/10 09:54:54;;;;;;;21.60;13.30;;;14.10;99.90;;;;;;5113607;27;20104;-69
2023/04/10 09:57:21;;;;;;;25.50;13.43;;;14.20;99.90;;;;;;5076253;28;20032;-69
2023/04/10 09:59:52;;;;;;;21.42;14.90;;;14.30;98.70;;;;;;5092082;28;20036;-69
2023/04/10 10:02:20;;;;;;;22.70;13.63;;;14.30;99.90;;;;;;5127626;27;20126;-69
2023/04/10 10:04:47;;;;;;;21.38;14.57;;;14.30;99.90;;;;;;5093824;28;20040;-69
2023/04/10 10:07:17;;;;;;;19.95;11.70;;;14.20;99.90;;;;;;5096447;28;20574;-69
2023/04/10 10:09:44;;;;;;;20.88;14.15;;;14.30;99.70;;;;;;5094786;28;20032;-69
2023/04/10 10:12:11;;;;;;;21.50;14.82;;;14.30;99.90;;;;;;5078532;28;20040;-69
2023/04/10 10:15:02;;;;;;;22.13;14.20;;;14.30;99.90;;;;;;5095954;28;20096;-69
2023/04/10 10:17:34;;;;;;;23.08;14.25;;;14.40;99.90;;;;;;5101453;28;20118;-69
2023/04/10 10:20:07;;;;;;;22.38;14.43;;;14.50;99.20;;;;;;5112776;28;20076;-69
2023/04/10 10:22:33;;;;;;;22.33;15.30;;;14.60;99.90;;;;;;5112044;28;20039;-69
2023/04/10 10:25:01;;;;;;;19.42;12.75;;;14.70;99.90;;;;;;5111547;28;20040;-69
2023/04/10 10:27:28;;;;;;;16.10;10.27;;;14.70;99.70;;;;;;5100506;28;20078;-69
2023/04/10 10:29:55;;;;;;;15.07;10.77;;;14.80;99.70;;;;;;5090172;28;20403;-69
2023/04/10 10:32:21;;;;;;;14.40;8.43;;;14.80;99.60;;;;;;5092362;28;20047;-69
2023/04/10 10:34:50;;;;;;;17.42;9.75;;;14.90;98.20;;;;;;5108222;28;20043;-69
2023/04/10 10:37:18;;;;;;;14.35;9.82;;;15.00;96.20;;;;;;5112745;28;20159;-69
2023/04/10 10:40:06;;;;;;;18.48;11.75;;;14.90;96.50;;;;;;5095698;28;20037;-69
2023/04/10 10:42:44;;;;;;;14.68;9.45;;;15.00;96.00;;;;;;5094673;28;20531;-69
2023/04/10 10:45:22;;;;;;;12.77;8.55;;;14.90;98.40;;;;;;5113018;28;20395;-70
2023/04/10 10:47:52;;;;;;;14.45;9.30;;;14.90;97.40;;;;;;5092749;28;20100;-69
2023/04/10 10:50:17;;;;;;;14.13;9.05;;;14.80;98.80;;;;;;5091959;27;20079;-69
2023/04/10 10:52:44;;;;;;;10.75;6.55;;;14.80;97.80;;;;;;5111235;28;20087;-69
2023/04/10 10:55:26;;;;;;;12.93;8.30;;;14.80;96.90;;;;;;5095784;28;20047;-69
2023/04/10 10:57:57;;;;;;;13.82;8.80;;;14.70;97.80;;;;;;5089007;28;20075;-69
2023/04/10 11:00:24;;;;;;;14.00;9.10;;;14.80;97.90;;;;;;5092410;28;20082;-69
2023/04/10 11:03:09;;;;;;;13.95;9.13;;;14.70;98.30;;;;;;5092646;28;20032;-69
2023/04/10 11:05:53;;;;;;;13.70;8.20;;;14.70;99.60;;;;;;5080269;27;20071;-69
2023/04/10 11:08:34;;;;;;;12.70;8.18;;;14.70;98.90;;;;;;5106589;28;20134;-69
2023/04/10 11:11:14;;;;;;;12.48;7.78;;;14.70;98.30;;;;;;5105369;27;20040;-69
2023/04/10 11:13:52;;;;;;;11.65;7.22;;;14.70;97.40;;;;;;5111516;28;20049;-69
2023/04/10 11:16:19;;;;;;;12.60;6.03;;;14.70;97.80;;;;;;5091912;28;20047;-69
2023/04/10 11:18:45;;;;;;;9.73;5.75;;;14.80;97.20;;;;;;5112415;28;20028;-69
2023/04/10 11:21:12;;;;;;;9.88;6.55;;;14.90;96.60;;;;;;5112419;28;20039;-69
2023/04/10 11:23:58;;;;;;;10.52;6.05;;;14.80;96.10;;;;;;5112387;28;20046;-69
2023/04/10 11:26:39;;;;;;;11.27;7.20;;;14.70;97.20;;;;;;5098957;28;20093;-69
2023/04/10 11:29:05;;;;;;;10.65;6.80;;;14.70;99.90;;;;;;5092287;28;20058;-69
2023/04/10 11:31:32;;;;;;;10.32;5.65;;;14.80;99.10;;;;;;5091404;28;20047;-69
2023/04/10 11:34:05;;;;;;;9.98;6.20;;;14.80;99.00;;;;;;5092008;28;20128;-69
2023/04/10 11:36:32;;;;;;;6.72;4.25;;;14.80;99.90;;;;;;5101645;28;20063;-69
2023/04/10 11:38:59;;;;;;;7.38;4.40;;;15.00;97.30;;;;;;5112209;28;20039;-69
2023/04/10 11:41:33;;;;;;;8.52;5.50;;;14.90;97.70;;;;;;5095393;28;20035;-69
2023/04/10 11:44:00;;;;;;;9.75;5.80;;;15.00;97.00;;;;;;5086902;28;20053;-69
2023/04/10 11:46:27;;;;;;;10.27;5.68;;;15.00;97.20;;;;;;5078174;28;20519;-69
2023/04/10 11:49:00;;;;;;;10.02;5.75;;;15.00;96.20;;;;;;5127315;28;20089;-69
2023/04/10 11:51:27;;;;;;;8.75;5.40;;;15.00;97.40;;;;;;5112258;28;20048;-69
2023/04/10 11:54:21;;;;;;;10.73;5.90;;;15.00;98.40;;;;;;5077809;28;20056;-69
2023/04/10 11:57:00;;;;;;;9.05;4.70;;;15.00;98.30;;;;;;5106371;28;20036;-69
2023/04/10 11:59:27;;;;;;;8.95;4.60;;;15.00;97.40;;;;;;5114891;27;20041;-69
2023/04/10 12:02:06;;;;;;;8.13;4.68;;;15.00;97.30;;;;;;5107050;28;20035;-69
2023/04/10 12:04:32;;;;;;;7.95;4.32;;;15.00;97.50;;;;;;5079619;28;20468;-69
2023/04/10 12:06:58;;;;;;;5.05;2.53;;;15.00;97.80;;;;;;5094599;28;20040;-69
2023/04/10 12:09:24;;;;;;;8.75;5.00;;;15.20;96.50;;;;;;5098389;28;20035;-69
2023/04/10 12:11:54;;;;;;;8.82;4.30;;;15.30;98.00;;;;;;5107861;27;20094;-69
2023/04/10 12:14:28;;;;;;;8.40;4.60;;;15.30;96.80;;;;;;5099337;28;20398;-69
2023/04/10 12:16:53;;;;;;;7.43;4.20;;;15.40;97.50;;;;;;5102647;28;20040;-69
2023/04/10 12:19:19;;;;;;;7.30;4.30;;;15.40;98.10;;;;;;5081666;28;20031;-69
2023/04/10 12:21:45;;;;;;;7.38;4.43;;;15.50;94.50;;;;;;5106172;28;20067;-69
2023/04/10 12:24:11;;;;;;;7.63;4.30;;;15.60;95.40;;;;;;5096291;28;20051;-69
2023/04/10 12:26:37;;;;;;;7.20;3.50;;;15.60;97.40;;;;;;5113767;28;20463;-69
2023/04/10 12:29:05;;;;;;;8.30;4.13;;;15.80;94.30;;;;;;5114913;28;20126;-69
2023/04/10 12:31:35;;;;;;;7.78;4.28;;;15.90;95.10;;;;;;5088798;28;20126;-69
2023/04/10 12:34:04;;;;;;;8.57;4.53;;;15.90;95.40;;;;;;5094640;28;20040;-69
2023/04/10 12:36:32;;;;;;;6.80;3.50;;;15.90;97.40;;;;;;5094128;28;20043;-69
2023/04/10 12:39:21;;;;;;;6.55;3.47;;;16.10;95.80;;;;;;5087001;28;20067;-69
2023/04/10 12:41:47;;;;;;;8.20;3.80;;;16.20;94.40;;;;;;5102731;28;20032;-69